createdAt,value
2022-08-22T00:01:14.802Z,99430.88
2022-08-22T00:02:48.678Z,99503.94
2022-08-22T00:03:04.983Z,99481.38
2022-08-22T00:03:06.480Z,99457.88
2022-08-22T00:03:12.109Z,99484.88
2022-08-22T00:04:36.799Z,99433.59
2022-08-22T00:08:03.643Z,99422.09
2022-08-22T00:11:52.923Z,99426.44
2022-08-22T00:15:31.520Z,99435.28
2022-08-22T00:18:45.049Z,99426.53
2022-08-22T00:21:58.676Z,99424.78
2022-08-22T00:25:25.431Z,99429.19
2022-08-22T00:28:44.335Z,99430.13
2022-08-22T00:31:54.627Z,99431.00
2022-08-22T00:35:14.948Z,99433.69
2022-08-22T00:38:32.525Z,99429.28
2022-08-22T00:42:01.493Z,99433.72
2022-08-22T00:45:28.923Z,99433.69
2022-08-22T00:48:43.301Z,99437.25
2022-08-22T00:52:14.239Z,99438.97
2022-08-22T00:55:22.847Z,99439.81
2022-08-22T00:58:59.756Z,99445.19
2022-08-22T01:02:50.492Z,99442.56
2022-08-22T01:06:45.027Z,99441.78
2022-08-22T01:10:17.492Z,99441.81
2022-08-22T01:13:44.343Z,99441.94
2022-08-22T01:16:55.973Z,99439.28
2022-08-22T01:20:28.220Z,99435.75
2022-08-22T01:24:04.146Z,99434.84
2022-08-22T01:27:47.983Z,99435.72
2022-08-22T01:31:01.441Z,99434.00
2022-08-22T01:34:19.618Z,99435.72
2022-08-22T01:37:22.007Z,99436.66
2022-08-22T01:40:31.043Z,99436.63
2022-08-22T01:44:01.051Z,99436.66
2022-08-22T01:47:13.277Z,99430.44
2022-08-22T01:50:25.229Z,99437.47
2022-08-22T01:53:47.042Z,99429.56
2022-08-22T01:56:49.640Z,99436.63
2022-08-22T01:59:57.442Z,99442.81
2022-08-22T02:03:25.186Z,99435.72
2022-08-22T02:06:44.948Z,99434.88
2022-08-22T02:10:18.607Z,99436.72
2022-08-22T02:13:59.430Z,99428.75
2022-08-22T02:17:25.394Z,99426.06
2022-08-22T02:20:47.362Z,99430.53
2022-08-22T02:23:49.709Z,99430.53
2022-08-22T02:27:12.989Z,99420.88
2022-08-22T02:30:51.979Z,99424.34
2022-08-22T02:34:02.427Z,99428.75
2022-08-22T02:37:13.065Z,99415.53
2022-08-22T02:40:37.605Z,99413.75
2022-08-22T02:43:54.940Z,99414.69
2022-08-22T02:47:09.019Z,99421.72
2022-08-22T02:50:21.135Z,99415.53
2022-08-22T02:53:48.530Z,99416.41
2022-08-22T02:57:00.930Z,99418.25
2022-08-22T03:00:30.938Z,99420.03
2022-08-22T03:03:39.793Z,99416.47
2022-08-22T03:07:00.100Z,99419.16
2022-08-22T03:10:16.615Z,99420.03
2022-08-22T03:13:37.632Z,99421.81
2022-08-22T03:16:54.972Z,99420.88
2022-08-22T03:20:14.989Z,99421.75
2022-08-22T03:23:25.751Z,99424.41
2022-08-22T03:26:56.696Z,99422.72
2022-08-22T03:30:19.907Z,99428.87
2022-08-22T03:33:26.344Z,99425.31
2022-08-22T03:36:31.389Z,99432.47
2022-08-22T03:40:06.926Z,99438.59
2022-08-22T03:43:54.299Z,99432.44
2022-08-22T03:47:22.025Z,99440.44
2022-08-22T03:50:45.739Z,99439.50
2022-08-22T03:54:09.498Z,99441.25
2022-08-22T03:57:30.494Z,99436.00
2022-08-22T04:00:58.499Z,99438.59
2022-08-22T04:04:38.552Z,99438.63
2022-08-22T04:08:03.510Z,99442.94
2022-08-22T04:11:46.214Z,99446.47
2022-08-22T04:15:14.325Z,99442.00
2022-08-22T04:18:27.386Z,99445.56
2022-08-22T04:21:53.744Z,99442.84
2022-08-22T04:25:15.180Z,99444.56
2022-08-22T04:28:51.728Z,99452.41
2022-08-22T04:32:14.696Z,99458.59
2022-08-22T04:35:35.381Z,99458.59
2022-08-22T04:38:47.756Z,99462.94
2022-08-22T04:42:06.971Z,99463.75
2022-08-22T04:45:31.756Z,99466.34
2022-08-22T04:48:40.913Z,99466.22
2022-08-22T04:52:16.019Z,99467.00
2022-08-22T04:55:31.102Z,99466.91
2022-08-22T04:58:46.324Z,99470.22
2022-08-22T05:01:55.058Z,99473.72
2022-08-22T05:05:13.089Z,99471.00
2022-08-22T05:08:23.169Z,99470.03
2022-08-22T05:11:27.599Z,99467.31
2022-08-22T05:14:58.616Z,99471.59
2022-08-22T05:18:09.395Z,99475.06
2022-08-22T05:21:14.414Z,99480.34
2022-08-22T05:24:39.847Z,99481.09
2022-08-22T05:27:48.272Z,99489.00
2022-08-22T05:30:51.563Z,99490.63
2022-08-22T05:34:03.706Z,99487.91
2022-08-22T05:37:17.655Z,99485.97
2022-08-22T05:40:27.023Z,99498.03
2022-08-22T05:43:31.267Z,99505.72
2022-08-22T05:46:42.401Z,99510.00
2022-08-22T05:50:02.114Z,99506.19
2022-08-22T05:53:10.778Z,99498.69
2022-08-22T05:56:23.266Z,99506.28
2022-08-22T05:59:32.919Z,99508.78
2022-08-22T06:02:51.358Z,99504.19
2022-08-22T06:05:59.015Z,99506.59
2022-08-22T06:09:03.614Z,99514.38
2022-08-22T06:12:21.776Z,99517.50
2022-08-22T06:15:40.345Z,99514.47
2022-08-22T06:18:45.747Z,99521.25
2022-08-22T06:21:51.068Z,99528.28
2022-08-22T06:25:05.612Z,99516.66
2022-08-22T06:28:13.598Z,99519.94
2022-08-22T06:31:30.007Z,99525.06
2022-08-22T06:34:38.301Z,99524.72
2022-08-22T06:37:45.914Z,99519.94
2022-08-22T06:40:53.167Z,99530.97
2022-08-22T06:43:58.964Z,99530.91
2022-08-22T06:47:07.352Z,99534.22
2022-08-22T06:50:15.008Z,99530.38
2022-08-22T06:53:27.277Z,99537.25
2022-08-22T06:56:38.789Z,99538.56
2022-08-22T06:59:43.928Z,99524.53
2022-08-22T07:02:53.072Z,99523.50
2022-08-22T07:05:57.267Z,99520.97
2022-08-22T07:09:00.287Z,99534.31
2022-08-22T07:12:20.222Z,99528.22
2022-08-22T07:15:35.019Z,99528.44
2022-08-22T07:18:48.225Z,99534.00
2022-08-22T07:21:52.227Z,99532.28
2022-08-22T07:25:09.640Z,99546.66
2022-08-22T07:28:18.178Z,99544.28
2022-08-22T07:31:41.957Z,99535.13
2022-08-22T07:35:16.029Z,99536.72
2022-08-22T07:38:51.896Z,99542.56
2022-08-22T07:42:18.945Z,99543.63
2022-08-22T07:45:36.154Z,99541.00
2022-08-22T07:49:08.638Z,99538.50
2022-08-22T07:52:13.683Z,99540.53
2022-08-22T07:55:24.668Z,99548.12
2022-08-22T07:58:31.202Z,99544.81
2022-08-22T08:01:35.598Z,99547.34
2022-08-22T08:04:40.975Z,99554.03
2022-08-22T08:07:45.858Z,99547.00
2022-08-22T08:10:51.004Z,99548.03
2022-08-22T08:13:59.282Z,99548.88
2022-08-22T08:17:19.575Z,99544.91
2022-08-22T08:20:25.159Z,99549.06
2022-08-22T08:23:34.963Z,99548.28
2022-08-22T08:27:03.945Z,99559.34
2022-08-22T08:30:29.989Z,99551.81
2022-08-22T08:33:36.915Z,99551.19
2022-08-22T08:37:02.328Z,99554.28
2022-08-22T08:40:38.614Z,99554.94
2022-08-22T08:44:13.887Z,99552.94
2022-08-22T08:47:28.504Z,99549.28
2022-08-22T08:51:04.235Z,99549.34
2022-08-22T08:54:26.349Z,99551.09
2022-08-22T08:57:51.155Z,99544.50
2022-08-22T09:01:03.058Z,99552.94
2022-08-22T09:04:16.737Z,99553.97
2022-08-22T09:08:00.915Z,99547.25
2022-08-22T09:11:28.553Z,99551.84
2022-08-22T09:14:52.449Z,99536.66
2022-08-22T09:18:37.717Z,99543.59
2022-08-22T09:21:44.067Z,99542.72
2022-08-22T09:24:46.993Z,99540.66
2022-08-22T09:28:09.869Z,99539.78
2022-08-22T09:31:44.856Z,99533.94
2022-08-22T09:35:11.758Z,99545.47
2022-08-22T09:38:46.671Z,99543.75
2022-08-22T09:42:44.813Z,99544.69
2022-08-22T09:46:13.786Z,99539.47
2022-08-22T09:49:57.067Z,99546.53
2022-08-22T09:53:38.290Z,99546.63
2022-08-22T09:57:00.740Z,99546.53
2022-08-22T10:00:10.510Z,99552.59
2022-08-22T10:03:45.547Z,99552.41
2022-08-22T10:07:13.428Z,99556.12
2022-08-22T10:10:34.998Z,99555.50
2022-08-22T10:14:01.708Z,99556.38
2022-08-22T10:17:21.914Z,99562.78
2022-08-22T10:20:50.045Z,99555.84
2022-08-22T10:24:14.494Z,99563.53
2022-08-22T10:27:57.531Z,99568.03
2022-08-22T10:31:08.014Z,99557.38
2022-08-22T10:34:20.316Z,99558.00
2022-08-22T10:37:32.732Z,99563.22
2022-08-22T10:40:52.067Z,99560.00
2022-08-22T10:44:17.912Z,99561.63
2022-08-22T10:47:52.534Z,99561.00
2022-08-22T10:51:10.032Z,99558.50
2022-08-22T10:54:28.907Z,99562.94
2022-08-22T10:57:44.158Z,99554.53
2022-08-22T11:00:54.994Z,99559.75
2022-08-22T11:04:19.819Z,99556.81
2022-08-22T11:07:50.676Z,99555.59
2022-08-22T11:11:16.048Z,99542.63
2022-08-22T11:14:31.572Z,99543.97
2022-08-22T11:17:54.527Z,99549.06
2022-08-22T11:21:00.960Z,99540.09
2022-08-22T11:25:04.714Z,99543.78
2022-08-22T11:28:26.197Z,99542.94
2022-08-22T11:32:06.225Z,99547.06
2022-08-22T11:35:26.158Z,99541.69
2022-08-22T11:38:53.949Z,99534.75
2022-08-22T11:42:13.584Z,99530.69
2022-08-22T11:45:25.680Z,99534.13
2022-08-22T11:48:51.326Z,99527.69
2022-08-22T11:52:13.341Z,99514.47
2022-08-22T11:55:34.671Z,99519.88
2022-08-22T11:59:10.479Z,99513.13
2022-08-22T12:02:27.100Z,99513.91
2022-08-22T12:05:41.494Z,99514.75
2022-08-22T12:08:49.463Z,99518.72
2022-08-22T12:12:31.020Z,99519.06
2022-08-22T12:15:39.496Z,99522.72
2022-08-22T12:19:19.509Z,99518.84
2022-08-22T12:22:50.022Z,99521.22
2022-08-22T12:26:04.919Z,99510.59
2022-08-22T12:29:34.128Z,99517.97
2022-08-22T12:33:10.304Z,99510.69
2022-08-22T12:36:34.321Z,99515.00
2022-08-22T12:39:44.011Z,99508.38
2022-08-22T12:42:57.423Z,99506.81
2022-08-22T12:46:13.094Z,99503.00
2022-08-22T12:49:57.395Z,99490.34
2022-08-22T12:53:09.268Z,99502.56
2022-08-22T12:56:31.573Z,99497.78
2022-08-22T12:59:41.675Z,99498.00
2022-08-22T13:02:45.375Z,99497.28
2022-08-22T13:05:56.261Z,99499.94
2022-08-22T13:09:11.074Z,99494.66
2022-08-22T13:12:25.719Z,99499.75
2022-08-22T13:15:31.917Z,99500.81
2022-08-22T13:18:47.320Z,99506.31
2022-08-22T13:22:11.809Z,99516.84
2022-08-22T13:25:25.452Z,99508.47
2022-08-22T13:28:31.881Z,99511.22
2022-08-22T13:31:38.810Z,99512.00
2022-08-22T13:34:50.589Z,99520.37
2022-08-22T13:38:03.291Z,99524.94
2022-08-22T13:41:08.952Z,99526.84
2022-08-22T13:44:31.450Z,99529.94
2022-08-22T13:47:45.704Z,99524.50
2022-08-22T13:51:03.696Z,99547.03
2022-08-22T13:54:11.106Z,99543.13
2022-08-22T13:57:17.830Z,99536.94
2022-08-22T14:00:28.652Z,99539.50
2022-08-22T14:03:49.101Z,99539.19
2022-08-22T14:06:56.682Z,99534.44
2022-08-22T14:10:20.181Z,99533.97
2022-08-22T14:13:44.727Z,99519.84
2022-08-22T14:16:52.059Z,99528.19
2022-08-22T14:20:02.167Z,99536.13
2022-08-22T14:23:27.295Z,99533.59
2022-08-22T14:26:37.267Z,99521.22
2022-08-22T14:29:55.166Z,99523.44
2022-08-22T14:33:20.823Z,99519.44
2022-08-22T14:36:29.666Z,99518.69
2022-08-22T14:39:48.033Z,99503.44
2022-08-22T14:43:15.280Z,99506.25
2022-08-22T14:46:33.928Z,99514.66
2022-08-22T14:49:55.444Z,99526.53
2022-08-22T14:53:25.117Z,99532.00
2022-08-22T14:56:30.092Z,99529.37
2022-08-22T14:59:37.071Z,99521.63
2022-08-22T15:02:41.111Z,99523.41
2022-08-22T15:06:21.866Z,99520.72
2022-08-22T15:09:40.538Z,99524.72
2022-08-22T15:12:51.472Z,99521.37
2022-08-22T15:15:59.795Z,99522.41
2022-08-22T15:19:23.048Z,99523.16
2022-08-22T15:22:28.004Z,99532.62
2022-08-22T15:25:35.234Z,99542.06
2022-08-22T15:28:52.494Z,99546.44
2022-08-22T15:32:01.089Z,99547.41
2022-08-22T15:35:11.548Z,99545.06
2022-08-22T15:38:28.539Z,99543.53
2022-08-22T15:41:36.249Z,99545.38
2022-08-22T15:44:44.230Z,99544.56
2022-08-22T15:47:52.095Z,99547.06
2022-08-22T15:51:10.391Z,99554.50
2022-08-22T15:54:35.954Z,99562.53
2022-08-22T15:57:47.480Z,99575.25
2022-08-22T16:01:19.783Z,99583.72
2022-08-22T16:04:37.627Z,99575.03
2022-08-22T16:07:46.014Z,99575.03
2022-08-22T16:11:24.158Z,99573.50
2022-08-22T16:14:32.927Z,99570.22
2022-08-22T16:17:43.189Z,99560.47
2022-08-22T16:20:51.901Z,99571.12
2022-08-22T16:23:56.382Z,99564.97
2022-08-22T16:27:14.496Z,99573.06
2022-08-22T16:30:32.720Z,99573.16
2022-08-22T16:33:40.651Z,99573.19
2022-08-22T16:36:49.529Z,99573.19
2022-08-22T16:40:01.657Z,99575.22
2022-08-22T16:43:19.949Z,99570.09
2022-08-22T16:46:33.205Z,99570.44
2022-08-22T16:49:55.738Z,99577.78
2022-08-22T16:53:10.326Z,99577.91
2022-08-22T16:56:35.058Z,99573.59
2022-08-22T16:59:55.576Z,99572.09
2022-08-22T17:03:23.445Z,99575.19
2022-08-22T17:06:50.779Z,99571.69
2022-08-22T17:10:10.212Z,99576.97
2022-08-22T17:13:20.636Z,99583.44
2022-08-22T17:16:41.279Z,99585.34
2022-08-22T17:20:05.617Z,99593.25
2022-08-22T17:23:42.098Z,99598.94
2022-08-22T17:26:57.793Z,99609.72
2022-08-22T17:30:12.121Z,99611.56
2022-08-22T17:33:28.527Z,99614.34
2022-08-22T17:36:39.395Z,99621.56
2022-08-22T17:39:56.529Z,99624.41
2022-08-22T17:43:14.999Z,99612.06
2022-08-22T17:46:35.811Z,99620.13
2022-08-22T17:49:41.400Z,99634.50
2022-08-22T17:52:55.537Z,99645.28
2022-08-22T17:56:14.196Z,99632.94
2022-08-22T17:59:26.358Z,99632.16
2022-08-22T18:02:39.365Z,99638.34
2022-08-22T18:06:09.303Z,99637.53
2022-08-22T18:09:25.816Z,99627.91
2022-08-22T18:12:44.712Z,99636.81
2022-08-22T18:15:52.196Z,99632.47
2022-08-22T18:18:57.693Z,99636.84
2022-08-22T18:22:07.825Z,99636.97
2022-08-22T18:25:20.020Z,99636.31
2022-08-22T18:28:34.130Z,99643.50
2022-08-22T18:32:17.431Z,99647.06
2022-08-22T18:35:49.850Z,99649.81
2022-08-22T18:39:22.036Z,99639.38
2022-08-22T18:42:35.170Z,99639.44
2022-08-22T18:45:47.086Z,99642.09
2022-08-22T18:49:14.251Z,99635.09
2022-08-22T18:52:18.535Z,99651.19
2022-08-22T18:55:51.660Z,99648.56
2022-08-22T18:59:13.005Z,99653.88
2022-08-22T19:02:41.349Z,99661.78
2022-08-22T19:06:09.350Z,99657.22
2022-08-22T19:09:32.153Z,99658.19
2022-08-22T19:12:50.141Z,99666.97
2022-08-22T19:16:25.306Z,99665.34
2022-08-22T19:20:02.183Z,99672.63
2022-08-22T19:23:33.972Z,99676.22
2022-08-22T19:26:43.881Z,99679.81
2022-08-22T19:29:46.303Z,99679.78
2022-08-22T19:32:49.991Z,99689.44
2022-08-22T19:35:52.568Z,99685.81
2022-08-22T19:39:09.122Z,99683.09
2022-08-22T19:42:27.683Z,99687.63
2022-08-22T19:45:32.310Z,99684.09
2022-08-22T19:48:44.585Z,99683.44
2022-08-22T19:51:59.736Z,99689.56
2022-08-22T19:55:08.834Z,99685.25
2022-08-22T19:58:41.049Z,99687.94
2022-08-22T20:01:51.214Z,99687.81
2022-08-22T20:05:03.546Z,99686.97
2022-08-22T20:08:11.558Z,99690.53
2022-08-22T20:12:02.753Z,99687.97
2022-08-22T20:15:26.793Z,99700.53
2022-08-22T20:19:06.612Z,99694.41
2022-08-22T20:22:24.356Z,99690.03
2022-08-22T20:25:50.314Z,99684.72
2022-08-22T20:28:54.236Z,99679.47
2022-08-22T20:31:59.065Z,99683.03
2022-08-22T20:35:05.624Z,99684.84
2022-08-22T20:38:16.834Z,99678.59
2022-08-22T20:41:22.534Z,99682.09
2022-08-22T20:44:28.553Z,99673.28
2022-08-22T20:47:41.138Z,99673.34
2022-08-22T20:50:44.764Z,99677.84
2022-08-22T20:54:02.300Z,99673.37
2022-08-22T20:57:19.293Z,99670.72
2022-08-22T21:00:41.119Z,99673.37
2022-08-22T21:03:50.882Z,99677.78
2022-08-22T21:07:02.297Z,99674.31
2022-08-22T21:10:42.916Z,99677.84
2022-08-22T21:13:49.086Z,99666.41
2022-08-22T21:16:53.215Z,99669.09
2022-08-22T21:19:57.932Z,99656.66
2022-08-22T21:23:08.838Z,99675.25
2022-08-22T21:26:28.808Z,99670.06
2022-08-22T21:29:42.219Z,99663.84
2022-08-22T21:32:52.294Z,99668.31
2022-08-22T21:35:59.561Z,99669.19
2022-08-22T21:39:12.631Z,99672.75
2022-08-22T21:42:26.772Z,99671.84
2022-08-22T21:45:34.297Z,99665.66
2022-08-22T21:49:02.786Z,99666.53
2022-08-22T21:52:05.301Z,99668.34
2022-08-22T21:55:38.895Z,99674.59
2022-08-22T21:58:42.280Z,99670.22
2022-08-22T22:01:47.230Z,99672.03
2022-08-22T22:04:50.216Z,99677.31
2022-08-22T22:07:52.846Z,99676.47
2022-08-22T22:11:01.290Z,99682.66
2022-08-22T22:14:04.100Z,99691.47
2022-08-22T22:17:06.845Z,99696.78
2022-08-22T22:20:10.051Z,99697.69
2022-08-22T22:23:12.969Z,99703.84
2022-08-22T22:26:15.515Z,99710.06
2022-08-22T22:29:19.376Z,99711.87
2022-08-22T22:32:22.437Z,99717.22
2022-08-22T22:35:25.300Z,99715.38
2022-08-22T22:38:27.939Z,99715.28
2022-08-22T22:41:30.796Z,99715.28
2022-08-22T22:44:33.523Z,99716.19
2022-08-22T22:47:37.627Z,99717.09
2022-08-22T22:50:40.684Z,99712.72
2022-08-22T22:53:44.900Z,99724.28
2022-08-22T22:56:48.031Z,99722.50
2022-08-22T22:59:51.144Z,99726.03
2022-08-22T23:02:53.707Z,99725.19
2022-08-22T23:05:56.311Z,99729.66
2022-08-22T23:08:59.020Z,99731.44
2022-08-22T23:12:03.190Z,99724.38
2022-08-22T23:15:08.254Z,99733.19
2022-08-22T23:18:11.087Z,99728.78
2022-08-22T23:21:19.918Z,99726.13
2022-08-22T23:24:24.001Z,99725.25
2022-08-22T23:27:26.687Z,99728.00
2022-08-22T23:30:30.309Z,99733.31
2022-08-22T23:33:35.227Z,99726.28
2022-08-22T23:36:39.534Z,99728.94
2022-08-22T23:39:42.971Z,99728.91
2022-08-22T23:42:45.782Z,99725.38
2022-08-22T23:45:48.468Z,99721.00
2022-08-22T23:48:51.573Z,99721.91
2022-08-22T23:51:54.778Z,99723.69
2022-08-22T23:54:57.599Z,99722.84
2022-08-22T23:58:00.405Z,99719.41
